createdAt,value
2022-09-14T00:01:29.595Z,1.83
2022-09-14T00:03:59.251Z,2.25
2022-09-14T00:06:28.637Z,2.20
2022-09-14T00:08:57.565Z,2.20
2022-09-14T00:11:25.954Z,2.40
2022-09-14T00:13:53.643Z,2.22
2022-09-14T00:16:22.315Z,1.67
2022-09-14T00:18:51.628Z,2.25
2022-09-14T00:21:19.130Z,2.00
2022-09-14T00:23:47.887Z,2.08
2022-09-14T00:26:16.719Z,2.10
2022-09-14T00:28:44.789Z,2.28
2022-09-14T00:31:12.433Z,2.35
2022-09-14T00:33:40.062Z,2.58
2022-09-14T00:36:08.670Z,3.50
2022-09-14T00:38:36.086Z,3.00
2022-09-14T00:41:05.677Z,2.63
2022-09-14T00:43:33.297Z,2.70
2022-09-14T00:46:01.144Z,2.63
2022-09-14T00:48:30.168Z,2.63
2022-09-14T00:50:57.723Z,2.58
2022-09-14T00:53:25.174Z,2.95
2022-09-14T00:55:54.193Z,2.65
2022-09-14T00:58:23.338Z,2.50
2022-09-14T01:00:50.743Z,3.15
2022-09-14T01:03:18.311Z,3.85
2022-09-14T01:05:52.075Z,3.25
2022-09-14T01:08:26.988Z,3.22
2022-09-14T01:11:01.640Z,2.33
2022-09-14T01:13:34.215Z,2.20
2022-09-14T01:16:04.767Z,2.47
2022-09-14T01:18:36.455Z,2.65
2022-09-14T01:21:06.170Z,2.30
2022-09-14T01:23:37.602Z,1.98
2022-09-14T01:26:21.372Z,1.92
2022-09-14T01:28:52.803Z,2.40
2022-09-14T01:31:22.276Z,2.88
2022-09-14T01:33:54.101Z,2.40
2022-09-14T01:36:22.110Z,2.40
2022-09-14T01:38:51.349Z,2.35
2022-09-14T01:41:21.435Z,1.92
2022-09-14T01:43:54.039Z,2.35
2022-09-14T01:46:25.881Z,2.30
2022-09-14T01:48:55.512Z,2.53
2022-09-14T01:51:27.517Z,2.28
2022-09-14T01:53:57.952Z,2.28
2022-09-14T01:56:26.810Z,2.15
2022-09-14T01:58:59.789Z,2.00
2022-09-14T02:01:30.916Z,2.85
2022-09-14T02:04:00.625Z,2.10
2022-09-14T02:06:29.902Z,2.00
2022-09-14T02:08:57.331Z,2.40
2022-09-14T02:11:24.694Z,2.00
2022-09-14T02:13:52.078Z,2.72
2022-09-14T02:16:21.104Z,2.00
2022-09-14T02:18:48.546Z,2.03
2022-09-14T02:21:18.455Z,2.10
2022-09-14T02:23:45.878Z,1.88
2022-09-14T02:26:13.632Z,2.38
2022-09-14T02:28:41.032Z,2.53
2022-09-14T02:31:14.145Z,1.95
2022-09-14T02:33:46.723Z,2.13
2022-09-14T02:36:17.585Z,2.20
2022-09-14T02:38:47.373Z,2.22
2022-09-14T02:41:18.806Z,2.60
2022-09-14T02:43:50.443Z,2.22
2022-09-14T02:46:20.010Z,2.53
2022-09-14T02:48:53.100Z,2.60
2022-09-14T02:51:25.851Z,2.28
2022-09-14T02:53:56.328Z,2.88
2022-09-14T02:56:23.704Z,2.10
2022-09-14T02:58:51.058Z,2.65
2022-09-14T03:01:20.135Z,2.80
2022-09-14T03:03:47.636Z,2.13
2022-09-14T03:06:16.530Z,2.65
2022-09-14T03:08:45.038Z,2.83
2022-09-14T03:11:12.863Z,2.75
2022-09-14T03:13:40.416Z,3.13
2022-09-14T03:16:08.606Z,2.85
2022-09-14T03:18:36.044Z,2.60
2022-09-14T03:21:04.761Z,2.88
2022-09-14T03:23:35.915Z,2.67
2022-09-14T03:26:07.093Z,3.20
2022-09-14T03:28:34.521Z,3.13
2022-09-14T03:31:02.289Z,2.83
2022-09-14T03:33:29.747Z,3.08
2022-09-14T03:35:57.271Z,3.17
2022-09-14T03:38:27.802Z,3.05
2022-09-14T03:40:56.451Z,2.70
2022-09-14T03:43:23.846Z,2.67
2022-09-14T03:45:51.161Z,2.92
2022-09-14T03:48:18.512Z,2.97
2022-09-14T03:50:45.898Z,2.33
2022-09-14T03:53:13.287Z,2.85
2022-09-14T03:55:40.905Z,3.10
2022-09-14T03:58:09.587Z,2.63
2022-09-14T04:00:37.282Z,2.83
2022-09-14T04:03:04.652Z,3.15
2022-09-14T04:05:32.203Z,2.80
2022-09-14T04:07:59.598Z,3.05
2022-09-14T04:10:26.967Z,3.20
2022-09-14T04:12:54.441Z,2.97
2022-09-14T04:15:23.214Z,2.67
2022-09-14T04:17:51.202Z,3.17
2022-09-14T04:20:19.066Z,3.22
2022-09-14T04:22:46.589Z,2.58
2022-09-14T04:25:13.960Z,3.42
2022-09-14T04:27:41.292Z,2.85
2022-09-14T04:30:08.995Z,3.22
2022-09-14T04:32:37.693Z,3.20
2022-09-14T04:35:05.239Z,3.05
2022-09-14T04:37:33.351Z,3.13
2022-09-14T04:40:01.105Z,3.13
2022-09-14T04:42:28.552Z,3.03
2022-09-14T04:44:56.024Z,3.80
2022-09-14T04:47:23.417Z,2.70
2022-09-14T04:49:52.147Z,3.17
2022-09-14T04:52:19.900Z,3.15
2022-09-14T04:54:47.256Z,3.25
2022-09-14T04:57:14.602Z,3.15
2022-09-14T04:59:41.960Z,2.95
2022-09-14T05:02:09.298Z,2.97
2022-09-14T05:04:36.691Z,3.70
2022-09-14T05:07:05.438Z,3.42
2022-09-14T05:09:32.792Z,3.85
2022-09-14T05:12:00.127Z,3.20
2022-09-14T05:14:27.495Z,4.05
2022-09-14T05:16:56.468Z,2.92
2022-09-14T05:19:23.825Z,3.03
2022-09-14T05:21:51.183Z,3.00
2022-09-14T05:24:20.415Z,3.22
2022-09-14T05:26:48.273Z,3.00
2022-09-14T05:29:16.768Z,3.45
2022-09-14T05:31:44.835Z,3.60
2022-09-14T05:34:12.703Z,3.25
2022-09-14T05:36:40.456Z,3.33
2022-09-14T05:39:08.346Z,2.67
2022-09-14T05:41:37.435Z,2.88
2022-09-14T05:44:05.002Z,3.00
2022-09-14T05:46:32.398Z,3.15
2022-09-14T05:48:59.837Z,3.05
2022-09-14T05:51:27.850Z,3.30
2022-09-14T05:53:56.688Z,2.67
2022-09-14T05:56:24.968Z,2.70
2022-09-14T05:58:53.800Z,2.30
2022-09-14T06:01:22.381Z,2.70
2022-09-14T06:03:50.398Z,2.42
2022-09-14T06:06:18.819Z,2.75
2022-09-14T06:08:46.444Z,2.58
2022-09-14T06:11:15.640Z,2.25
2022-09-14T06:13:43.455Z,2.08
2022-09-14T06:16:13.062Z,2.20
2022-09-14T06:18:41.196Z,2.58
2022-09-14T06:21:09.186Z,2.60
2022-09-14T06:23:36.880Z,2.97
2022-09-14T06:26:05.313Z,2.05
2022-09-14T06:28:33.054Z,2.70
2022-09-14T06:31:00.498Z,2.17
2022-09-14T06:33:29.186Z,2.53
2022-09-14T06:35:57.060Z,2.70
2022-09-14T06:38:24.517Z,2.30
2022-09-14T06:40:53.012Z,2.35
2022-09-14T06:43:20.450Z,2.17
2022-09-14T06:45:55.926Z,2.25
2022-09-14T06:48:23.335Z,2.35
2022-09-14T06:50:52.068Z,2.63
2022-09-14T06:53:19.375Z,2.20
2022-09-14T06:55:46.794Z,1.90
2022-09-14T06:58:14.279Z,2.40
2022-09-14T07:00:41.852Z,2.20
2022-09-14T07:03:09.378Z,2.17
2022-09-14T07:05:36.793Z,2.08
2022-09-14T07:08:08.987Z,2.10
2022-09-14T07:10:39.247Z,2.30
2022-09-14T07:13:06.679Z,2.45
2022-09-14T07:15:34.197Z,1.90
2022-09-14T07:18:01.555Z,2.75
2022-09-14T07:20:28.895Z,1.88
2022-09-14T07:22:56.668Z,1.88
2022-09-14T07:25:25.390Z,1.73
2022-09-14T07:27:52.747Z,1.77
2022-09-14T07:30:20.054Z,2.55
2022-09-14T07:32:47.425Z,1.75
2022-09-14T07:35:14.815Z,1.75
2022-09-14T07:37:42.279Z,2.10
2022-09-14T07:40:11.171Z,1.88
2022-09-14T07:42:40.062Z,1.52
2022-09-14T07:45:07.775Z,2.00
2022-09-14T07:47:35.100Z,1.90
2022-09-14T07:50:02.476Z,2.25
2022-09-14T07:52:29.847Z,1.60
2022-09-14T07:54:57.240Z,3.08
2022-09-14T07:57:45.417Z,1.58
2022-09-14T08:00:14.357Z,1.50
2022-09-14T08:02:41.822Z,1.38
2022-09-14T08:05:09.648Z,1.50
2022-09-14T08:07:36.981Z,1.75
2022-09-14T08:10:04.517Z,1.60
2022-09-14T08:12:31.846Z,1.50
2022-09-14T08:14:59.167Z,1.42
2022-09-14T08:17:28.096Z,1.23
2022-09-14T08:19:55.725Z,1.20
2022-09-14T08:22:23.101Z,1.60
2022-09-14T08:24:50.501Z,1.30
2022-09-14T08:27:17.890Z,1.60
2022-09-14T08:29:45.244Z,1.25
2022-09-14T08:32:12.779Z,1.33
2022-09-14T08:34:41.583Z,1.25
2022-09-14T08:37:10.705Z,1.02
2022-09-14T08:39:38.104Z,0.95
2022-09-14T08:42:06.163Z,1.15
2022-09-14T08:44:38.686Z,1.35
2022-09-14T08:47:07.555Z,1.65
2022-09-14T08:49:39.785Z,1.25
2022-09-14T08:52:10.667Z,1.10
2022-09-14T08:54:38.106Z,1.48
2022-09-14T08:57:14.772Z,1.10
2022-09-14T08:59:45.837Z,1.30
2022-09-14T09:02:24.228Z,1.20
2022-09-14T09:04:53.351Z,1.40
2022-09-14T09:07:27.881Z,0.90
2022-09-14T09:09:57.206Z,1.27
2022-09-14T09:12:28.176Z,1.08
2022-09-14T09:14:57.413Z,1.02
2022-09-14T09:17:27.818Z,0.90
2022-09-14T09:19:58.891Z,1.10
2022-09-14T09:22:29.864Z,1.20
2022-09-14T09:24:58.499Z,1.40
2022-09-14T09:27:27.792Z,1.30
2022-09-14T09:29:55.186Z,1.35
2022-09-14T09:32:23.199Z,1.10
2022-09-14T09:34:50.832Z,1.75
2022-09-14T09:37:19.543Z,1.20
2022-09-14T09:39:48.577Z,1.70
2022-09-14T09:42:21.048Z,0.90
2022-09-14T09:45:00.642Z,1.02
2022-09-14T09:47:31.183Z,1.25
2022-09-14T09:49:59.992Z,1.13
2022-09-14T09:52:27.553Z,1.10
2022-09-14T09:54:57.512Z,1.35
2022-09-14T09:57:28.961Z,1.05
2022-09-14T10:00:09.457Z,1.27
2022-09-14T10:02:37.101Z,1.45
2022-09-14T10:05:05.300Z,1.20
2022-09-14T10:07:34.408Z,1.50
2022-09-14T10:10:04.849Z,1.50
2022-09-14T10:15:17.008Z,1.00
2022-09-14T10:17:57.963Z,1.00
2022-09-14T10:20:26.451Z,1.10
2022-09-14T10:22:53.929Z,1.20
2022-09-14T10:25:24.259Z,1.60
2022-09-14T10:27:58.346Z,1.17
2022-09-14T10:30:26.688Z,1.10
2022-09-14T10:32:56.478Z,1.08
2022-09-14T10:35:24.747Z,1.13
2022-09-14T10:38:00.312Z,1.42
2022-09-14T10:40:33.897Z,1.30
2022-09-14T10:43:08.308Z,1.30
2022-09-14T10:45:36.962Z,1.40
2022-09-14T10:48:09.850Z,1.48
2022-09-14T10:50:42.371Z,1.27
2022-09-14T10:53:18.345Z,1.40
2022-09-14T10:55:49.739Z,0.90
2022-09-14T10:58:25.326Z,1.10
2022-09-14T11:00:59.092Z,1.02
2022-09-14T11:03:33.774Z,1.25
2022-09-14T11:06:08.306Z,1.90
2022-09-14T11:08:39.301Z,1.05
2022-09-14T11:11:17.910Z,1.30
2022-09-14T11:13:53.977Z,0.80
2022-09-14T11:16:29.520Z,1.02
2022-09-14T11:19:02.141Z,0.98
2022-09-14T11:21:32.865Z,1.35
2022-09-14T11:24:03.007Z,0.80
2022-09-14T11:26:35.328Z,1.15
2022-09-14T11:29:08.194Z,0.90
2022-09-14T11:31:37.628Z,1.10
2022-09-14T11:34:08.275Z,1.27
2022-09-14T11:36:37.961Z,1.23
2022-09-14T11:39:07.619Z,1.20
2022-09-14T11:41:38.900Z,1.10
2022-09-14T11:44:11.260Z,0.90
2022-09-14T11:46:40.451Z,1.25
2022-09-14T11:49:13.672Z,0.90
2022-09-14T11:51:44.838Z,1.00
2022-09-14T11:54:14.171Z,1.33
2022-09-14T11:56:43.797Z,1.25
2022-09-14T11:59:31.188Z,1.17
2022-09-14T12:02:19.905Z,1.10
2022-09-14T12:05:02.188Z,1.05
2022-09-14T12:07:47.607Z,1.42
2022-09-14T12:10:18.089Z,1.23
2022-09-14T12:12:46.456Z,1.30
2022-09-14T12:15:22.943Z,1.15
2022-09-14T12:17:52.342Z,1.17
2022-09-14T12:20:28.550Z,1.35
2022-09-14T12:23:05.593Z,1.08
2022-09-14T12:25:33.092Z,1.13
2022-09-14T12:28:00.521Z,1.63
2022-09-14T12:30:53.255Z,1.10
2022-09-14T12:33:39.426Z,0.80
2022-09-14T12:36:10.808Z,0.98
2022-09-14T12:38:43.104Z,1.10
2022-09-14T12:41:29.163Z,1.55
2022-09-14T12:43:56.506Z,1.17
2022-09-14T12:46:38.452Z,1.00
2022-09-14T12:49:32.859Z,0.93
2022-09-14T12:52:03.878Z,1.13
2022-09-14T12:54:36.682Z,1.33
2022-09-14T12:57:10.197Z,1.17
2022-09-14T12:59:41.218Z,0.90
2022-09-14T13:02:17.531Z,1.00
2022-09-14T13:04:45.759Z,1.00
2022-09-14T13:07:16.266Z,1.08
2022-09-14T13:09:47.253Z,1.10
2022-09-14T13:12:15.985Z,1.23
2022-09-14T13:14:47.437Z,1.20
2022-09-14T13:17:15.823Z,1.00
2022-09-14T13:19:43.716Z,1.15
2022-09-14T13:22:19.589Z,1.00
2022-09-14T13:24:47.668Z,1.20
2022-09-14T13:27:20.742Z,1.30
2022-09-14T13:29:48.368Z,1.73
2022-09-14T13:32:18.848Z,1.02
2022-09-14T13:34:46.408Z,1.10
2022-09-14T13:37:14.430Z,0.95
2022-09-14T13:39:50.768Z,1.23
2022-09-14T13:42:18.585Z,1.15
2022-09-14T13:44:46.789Z,1.23
2022-09-14T13:47:14.667Z,1.42
2022-09-14T13:49:42.644Z,1.20
2022-09-14T13:52:57.496Z,1.25
2022-09-14T13:55:24.987Z,0.80
2022-09-14T13:58:12.798Z,1.30
2022-09-14T14:00:48.688Z,1.08
2022-09-14T14:03:22.392Z,1.33
2022-09-14T14:05:49.714Z,1.33
2022-09-14T14:08:26.536Z,1.00
2022-09-14T14:10:55.794Z,1.45
2022-09-14T14:13:26.324Z,1.17
2022-09-14T14:15:54.116Z,0.95
2022-09-14T14:18:31.486Z,1.48
2022-09-14T14:21:05.928Z,1.30
2022-09-14T14:23:33.268Z,1.10
2022-09-14T14:26:09.210Z,1.02
2022-09-14T14:28:36.762Z,1.38
2022-09-14T14:31:08.503Z,1.10
2022-09-14T14:33:36.903Z,1.27
2022-09-14T14:36:09.254Z,1.35
2022-09-14T14:38:37.031Z,1.30
2022-09-14T14:41:04.823Z,1.33
2022-09-14T14:43:33.606Z,1.10
2022-09-14T14:46:01.676Z,1.25
2022-09-14T14:48:29.969Z,1.48
2022-09-14T14:50:57.434Z,1.10
2022-09-14T14:53:24.942Z,1.17
2022-09-14T14:55:53.170Z,1.35
2022-09-14T14:58:21.070Z,1.40
2022-09-14T15:00:50.114Z,1.25
2022-09-14T15:03:18.853Z,1.30
2022-09-14T15:05:47.314Z,1.38
2022-09-14T15:08:16.268Z,1.30
2022-09-14T15:10:44.060Z,1.23
2022-09-14T15:13:11.924Z,1.10
2022-09-14T15:15:40.777Z,1.40
2022-09-14T15:18:09.589Z,1.30
2022-09-14T15:20:36.934Z,1.27
2022-09-14T15:23:04.370Z,1.50
2022-09-14T15:25:31.722Z,1.33
2022-09-14T15:27:59.091Z,1.40
2022-09-14T15:30:26.563Z,1.83
2022-09-14T15:32:54.996Z,1.58
2022-09-14T15:35:23.840Z,1.80
2022-09-14T15:37:51.167Z,1.40
2022-09-14T15:40:18.684Z,1.95
2022-09-14T15:42:46.101Z,1.73
2022-09-14T15:45:14.482Z,1.60
2022-09-14T15:47:42.891Z,1.25
2022-09-14T15:50:10.938Z,1.45
2022-09-14T15:52:39.995Z,1.50
2022-09-14T15:55:08.375Z,1.48
2022-09-14T15:57:36.015Z,1.60
2022-09-14T16:00:05.398Z,1.63
2022-09-14T16:02:32.885Z,1.65
2022-09-14T16:05:00.279Z,1.30
2022-09-14T16:07:29.603Z,1.30
2022-09-14T16:09:59.134Z,1.60
2022-09-14T16:12:26.674Z,1.40
2022-09-14T16:14:54.066Z,1.27
2022-09-14T16:17:21.378Z,1.52
2022-09-14T16:19:49.337Z,1.45
2022-09-14T16:22:16.726Z,1.60
2022-09-14T16:24:44.247Z,1.50
2022-09-14T16:27:12.916Z,1.45
2022-09-14T16:29:40.616Z,1.83
2022-09-14T16:32:08.079Z,2.10
2022-09-14T16:34:37.054Z,1.60
2022-09-14T16:37:04.510Z,1.40
2022-09-14T16:39:34.675Z,1.30
2022-09-14T16:42:02.422Z,1.85
2022-09-14T16:44:31.179Z,1.27
2022-09-14T16:46:59.111Z,1.10
2022-09-14T16:49:28.245Z,1.23
2022-09-14T16:51:55.965Z,1.25
2022-09-14T16:54:24.254Z,1.42
2022-09-14T16:56:51.718Z,1.25
2022-09-14T16:59:20.500Z,1.48
2022-09-14T17:01:54.319Z,1.48
2022-09-14T17:04:22.821Z,1.58
2022-09-14T17:06:51.496Z,1.48
2022-09-14T17:09:20.385Z,1.40
2022-09-14T17:11:48.474Z,1.70
2022-09-14T17:14:17.638Z,1.50
2022-09-14T17:16:45.406Z,1.58
2022-09-14T17:19:14.477Z,1.38
2022-09-14T17:21:42.958Z,1.70
2022-09-14T17:24:10.952Z,1.55
2022-09-14T17:26:38.444Z,1.42
2022-09-14T17:29:06.520Z,1.65
2022-09-14T17:31:37.931Z,1.50
2022-09-14T17:34:06.381Z,2.03
2022-09-14T17:36:35.118Z,1.73
2022-09-14T17:39:07.919Z,1.48
2022-09-14T17:41:39.174Z,1.52
2022-09-14T17:44:07.264Z,2.03
2022-09-14T17:46:35.931Z,1.98
2022-09-14T17:49:05.243Z,2.20
2022-09-14T17:51:36.247Z,1.80
2022-09-14T17:54:05.058Z,1.90
2022-09-14T17:56:32.675Z,2.08
2022-09-14T17:59:04.377Z,2.20
2022-09-14T18:01:32.051Z,1.95
2022-09-14T18:04:00.356Z,2.10
2022-09-14T18:06:28.675Z,2.38
2022-09-14T18:08:56.870Z,1.92
2022-09-14T18:11:25.714Z,1.80
2022-09-14T18:13:53.094Z,1.77
2022-09-14T18:16:21.406Z,1.80
2022-09-14T18:18:49.072Z,1.90
2022-09-14T18:21:18.424Z,2.20
2022-09-14T18:23:48.762Z,2.00
2022-09-14T18:26:16.226Z,1.90
2022-09-14T18:28:45.350Z,1.88
2022-09-14T18:31:13.734Z,2.10
2022-09-14T18:33:41.289Z,2.00
2022-09-14T18:36:08.868Z,2.17
2022-09-14T18:38:36.302Z,1.90
2022-09-14T18:41:04.292Z,1.80
2022-09-14T18:43:31.832Z,1.77
2022-09-14T18:46:00.709Z,1.85
2022-09-14T18:48:28.070Z,2.00
2022-09-14T18:50:55.427Z,1.60
2022-09-14T18:53:22.784Z,1.80
2022-09-14T18:55:50.215Z,1.80
2022-09-14T18:58:17.566Z,2.05
2022-09-14T19:00:45.680Z,1.52
2022-09-14T19:03:14.454Z,1.85
2022-09-14T19:05:42.977Z,1.75
2022-09-14T19:08:13.489Z,2.05
2022-09-14T19:10:41.031Z,2.08
2022-09-14T19:13:08.590Z,1.83
2022-09-14T19:15:38.907Z,1.88
2022-09-14T19:18:06.494Z,2.20
2022-09-14T19:21:04.860Z,2.20
2022-09-14T19:23:26.110Z,3.63
2022-09-14T19:25:53.486Z,3.45
2022-09-14T19:28:20.854Z,3.35
2022-09-14T19:30:48.733Z,2.92
2022-09-14T19:33:16.168Z,3.42
2022-09-14T19:35:44.887Z,3.40
2022-09-14T19:38:12.246Z,2.80
2022-09-14T19:40:39.618Z,2.80
2022-09-14T19:43:07.078Z,2.80
2022-09-14T19:45:36.248Z,2.97
2022-09-14T19:48:03.731Z,2.30
2022-09-14T19:50:31.088Z,2.50
2022-09-14T19:53:03.887Z,2.83
2022-09-14T19:55:32.104Z,2.65
2022-09-14T19:57:59.568Z,2.50
2022-09-14T20:00:27.139Z,2.45
2022-09-14T20:02:54.555Z,2.75
2022-09-14T20:05:21.976Z,2.63
2022-09-14T20:07:49.542Z,2.50
2022-09-14T20:10:18.899Z,3.10
2022-09-14T20:12:47.052Z,3.08
2022-09-14T20:15:15.028Z,2.97
2022-09-14T20:17:42.405Z,2.80
2022-09-14T20:20:11.413Z,2.63
2022-09-14T20:22:39.071Z,2.20
2022-09-14T20:25:06.794Z,2.47
2022-09-14T20:27:35.500Z,2.35
2022-09-14T20:30:02.895Z,3.20
2022-09-14T20:32:31.032Z,2.67
2022-09-14T20:34:58.382Z,2.58
2022-09-14T20:37:25.758Z,2.47
2022-09-14T20:39:53.170Z,2.65
2022-09-14T20:42:20.576Z,3.58
2022-09-14T20:44:49.313Z,3.35
2022-09-14T20:47:16.677Z,2.80
2022-09-14T20:49:44.170Z,2.97
2022-09-14T20:52:11.507Z,3.05
2022-09-14T20:54:38.844Z,3.08
2022-09-14T20:57:06.230Z,2.90
2022-09-14T20:59:33.614Z,3.20
2022-09-14T21:02:05.340Z,2.75
2022-09-14T21:04:34.695Z,2.90
2022-09-14T21:07:02.394Z,2.65
2022-09-14T21:09:29.847Z,2.75
2022-09-14T21:11:57.189Z,3.00
2022-09-14T21:14:24.604Z,2.42
2022-09-14T21:16:55.056Z,3.15
2022-09-14T21:19:24.513Z,2.78
2022-09-14T21:21:52.354Z,3.00
2022-09-14T21:24:20.591Z,2.95
2022-09-14T21:26:48.243Z,2.40
2022-09-14T21:29:17.215Z,2.55
2022-09-14T21:31:44.666Z,2.63
2022-09-14T21:34:12.483Z,2.65
2022-09-14T21:36:42.258Z,3.13
2022-09-14T21:39:10.787Z,2.65
2022-09-14T21:41:38.742Z,3.08
2022-09-14T21:44:06.595Z,2.70
2022-09-14T21:46:33.975Z,2.78
2022-09-14T21:49:01.427Z,3.03
2022-09-14T21:51:29.728Z,3.10
2022-09-14T21:53:59.327Z,2.53
2022-09-14T21:56:27.619Z,3.15
2022-09-14T21:58:55.909Z,3.20
2022-09-14T22:01:23.450Z,2.78
2022-09-14T22:03:51.532Z,3.22
2022-09-14T22:06:19.750Z,3.20
2022-09-14T22:08:47.975Z,3.08
2022-09-14T22:11:21.178Z,3.05
2022-09-14T22:13:53.899Z,2.95
2022-09-14T22:16:21.486Z,2.97
2022-09-14T22:18:50.057Z,3.30
2022-09-14T22:21:17.890Z,3.33
2022-09-14T22:23:49.099Z,3.60
2022-09-14T22:26:19.922Z,3.20
2022-09-14T22:31:15.102Z,2.92
2022-09-14T22:33:42.604Z,3.60
2022-09-14T22:36:10.943Z,2.78
2022-09-14T22:38:39.123Z,3.55
2022-09-14T22:41:07.192Z,3.30
2022-09-14T22:43:36.020Z,3.95
2022-09-14T22:46:04.295Z,2.83
2022-09-14T22:48:32.130Z,3.00
2022-09-14T22:50:59.853Z,2.65
2022-09-14T22:53:27.892Z,2.70
2022-09-14T22:55:55.375Z,2.92
2022-09-14T22:58:24.856Z,2.83
2022-09-14T23:00:54.021Z,2.83
2022-09-14T23:03:21.671Z,3.00
2022-09-14T23:05:49.623Z,3.00
2022-09-14T23:08:16.994Z,2.70
2022-09-14T23:10:44.338Z,3.20
2022-09-14T23:13:11.783Z,3.03
2022-09-14T23:15:39.407Z,3.30
2022-09-14T23:18:08.638Z,2.85
2022-09-14T23:20:37.116Z,2.88
2022-09-14T23:23:04.521Z,2.90
2022-09-14T23:25:34.494Z,3.17
2022-09-14T23:28:01.901Z,2.75
2022-09-14T23:30:29.394Z,3.08
2022-09-14T23:32:56.781Z,3.00
2022-09-14T23:35:25.761Z,3.60
2022-09-14T23:37:53.197Z,2.95
2022-09-14T23:40:20.627Z,3.00
2022-09-14T23:42:48.367Z,2.97
2022-09-14T23:45:15.923Z,3.08
2022-09-14T23:47:43.371Z,2.88
2022-09-14T23:50:10.927Z,2.88
2022-09-14T23:52:40.589Z,3.20
2022-09-14T23:55:08.530Z,2.97
2022-09-14T23:57:36.590Z,2.83
